Terminal Aerodrome Forecast
Issued by NWS Missoula, MT

Home | Current Version | Previous Version | Text Only | Print | Product List | Glossary On
Versions: 1 2 3 4 5 6 7 8 9 10 11 12 13 14 15 16
000
FTUS45 KMSO 250520
TAFBTM
TAF
KBTM 250520Z 2506/2606 14005KT P6SM SKC
     FM251000 VRB03KT P6SM SCT006
     FM251500 22006KT P6SM SCT150=

USA.gov is the U.S. government's official web portal to all federal, state and local government web resources and services.